createdAt,value
2018-03-26T00:00:03.324Z,14.60
2018-03-26T00:02:30.802Z,14.60
2018-03-26T00:04:58.286Z,14.60
2018-03-26T00:07:25.733Z,14.50
2018-03-26T00:09:53.163Z,14.60
2018-03-26T00:12:20.593Z,14.50
2018-03-26T00:14:48.809Z,14.60
2018-03-26T00:17:16.282Z,14.50
2018-03-26T00:19:44.504Z,14.60
2018-03-26T00:22:12.693Z,14.50
2018-03-26T00:24:40.143Z,14.50
2018-03-26T00:27:07.614Z,14.40
2018-03-26T00:29:35.806Z,14.40
2018-03-26T00:32:03.262Z,14.40
2018-03-26T00:34:30.694Z,14.40
2018-03-26T00:36:58.145Z,14.40
2018-03-26T00:39:25.582Z,14.40
2018-03-26T00:41:53.789Z,14.40
2018-03-26T00:44:21.220Z,14.40
2018-03-26T00:46:49.435Z,14.40
2018-03-26T00:49:16.892Z,14.40
2018-03-26T00:51:45.275Z,14.40
2018-03-26T00:54:12.718Z,14.40
2018-03-26T00:56:40.158Z,14.40
2018-03-26T00:59:08.375Z,14.40
2018-03-26T01:01:36.602Z,14.20
2018-03-26T01:04:04.834Z,14.10
2018-03-26T01:06:32.271Z,14.10
2018-03-26T01:09:00.303Z,14.10
2018-03-26T01:11:28.840Z,14.10
2018-03-26T01:13:56.280Z,14.00
2018-03-26T01:16:24.488Z,14.00
2018-03-26T01:18:51.930Z,14.00
2018-03-26T01:21:20.701Z,14.00
2018-03-26T01:23:48.172Z,13.90
2018-03-26T01:26:15.635Z,13.80
2018-03-26T01:28:43.086Z,13.80
2018-03-26T01:31:10.514Z,13.80
2018-03-26T01:33:37.964Z,13.80
2018-03-26T01:36:06.168Z,13.70
2018-03-26T01:38:33.619Z,13.70
2018-03-26T01:41:01.065Z,13.80
2018-03-26T01:43:28.522Z,13.80
2018-03-26T01:45:55.987Z,13.90
2018-03-26T01:48:23.433Z,13.90
2018-03-26T01:50:50.865Z,13.90
2018-03-26T01:53:20.960Z,13.80
2018-03-26T01:55:48.401Z,13.80
2018-03-26T01:58:15.841Z,13.70
2018-03-26T02:00:43.285Z,13.60
2018-03-26T02:03:10.762Z,13.60
2018-03-26T02:05:38.212Z,13.50
2018-03-26T02:08:05.667Z,13.40
2018-03-26T02:10:33.103Z,13.50
2018-03-26T02:13:01.529Z,13.60
2018-03-26T02:15:28.960Z,13.50
2018-03-26T02:17:56.415Z,13.50
2018-03-26T02:20:23.856Z,13.50
2018-03-26T02:22:52.069Z,13.60
2018-03-26T02:25:20.849Z,13.60
2018-03-26T02:27:48.609Z,13.60
2018-03-26T02:30:16.054Z,13.60
2018-03-26T02:32:43.545Z,13.50
2018-03-26T02:35:10.982Z,13.30
2018-03-26T02:37:38.429Z,13.40
2018-03-26T02:40:05.861Z,13.30
2018-03-26T02:42:34.677Z,13.30
2018-03-26T02:45:02.123Z,13.30
2018-03-26T02:47:30.345Z,13.00
2018-03-26T02:49:57.777Z,13.00
2018-03-26T02:52:25.216Z,13.00
2018-03-26T02:54:52.691Z,12.90
2018-03-26T02:57:20.186Z,12.90
2018-03-26T02:59:47.621Z,13.00
2018-03-26T03:02:15.073Z,13.10
2018-03-26T03:04:42.512Z,13.00
2018-03-26T03:07:09.945Z,12.90
2018-03-26T03:09:38.169Z,12.30
2018-03-26T03:12:05.624Z,12.30
2018-03-26T03:14:33.928Z,12.30
2018-03-26T03:17:01.365Z,12.40
2018-03-26T03:19:28.819Z,12.60
2018-03-26T03:21:56.248Z,12.70
2018-03-26T03:24:23.723Z,12.80
2018-03-26T03:26:51.162Z,12.80
2018-03-26T03:29:18.609Z,12.90
2018-03-26T03:31:46.065Z,12.90
2018-03-26T03:34:14.273Z,13.00
2018-03-26T03:36:41.717Z,13.00
2018-03-26T03:39:09.153Z,12.90
2018-03-26T03:41:37.357Z,12.80
2018-03-26T03:44:04.822Z,12.80
2018-03-26T03:46:32.255Z,12.90
2018-03-26T03:48:59.727Z,12.80
2018-03-26T03:51:27.189Z,12.80
2018-03-26T03:56:12.892Z,12.90
2018-03-26T03:58:40.344Z,12.60
2018-03-26T04:01:07.777Z,12.60
2018-03-26T04:03:35.217Z,12.70
2018-03-26T04:06:03.438Z,12.80
2018-03-26T04:08:30.906Z,12.70
2018-03-26T04:10:58.324Z,12.70
2018-03-26T04:13:25.764Z,12.80
2018-03-26T04:15:53.989Z,12.70
2018-03-26T04:18:21.435Z,12.70
2018-03-26T04:20:48.860Z,12.50
2018-03-26T04:23:17.073Z,12.70
2018-03-26T04:25:44.529Z,12.70
2018-03-26T04:28:12.478Z,12.70
2018-03-26T04:30:39.931Z,12.50
2018-03-26T04:33:08.142Z,12.40
2018-03-26T04:35:35.593Z,12.30
2018-03-26T04:38:03.050Z,12.30
2018-03-26T04:40:30.513Z,11.90
2018-03-26T04:42:57.956Z,11.90
2018-03-26T04:45:25.421Z,12.00
2018-03-26T04:47:52.875Z,12.00
2018-03-26T04:50:20.497Z,11.80
2018-03-26T04:52:47.897Z,11.70
2018-03-26T04:55:15.348Z,11.90
2018-03-26T04:57:42.821Z,11.70
2018-03-26T05:00:10.280Z,11.60
2018-03-26T05:02:37.726Z,11.60
2018-03-26T05:05:05.186Z,11.70
2018-03-26T05:07:32.609Z,11.90
2018-03-26T05:10:00.864Z,12.10
2018-03-26T05:12:28.302Z,12.10
2018-03-26T05:14:55.758Z,12.30
2018-03-26T05:17:23.812Z,12.30
2018-03-26T05:19:51.259Z,12.40
2018-03-26T05:22:18.713Z,12.00
2018-03-26T05:24:46.176Z,11.70
2018-03-26T05:27:13.610Z,11.60
2018-03-26T05:29:41.044Z,11.80
2018-03-26T05:32:09.261Z,12.00
2018-03-26T05:34:36.705Z,12.00
2018-03-26T05:37:04.161Z,12.00
2018-03-26T05:39:31.609Z,12.00
2018-03-26T05:41:59.036Z,11.70
2018-03-26T05:44:26.489Z,11.60
2018-03-26T05:46:53.936Z,11.70
2018-03-26T05:49:21.386Z,11.90
2018-03-26T05:51:48.823Z,11.80
2018-03-26T05:54:16.257Z,11.70
2018-03-26T05:56:43.700Z,11.50
2018-03-26T05:59:11.899Z,11.80
2018-03-26T06:01:39.328Z,11.70
2018-03-26T06:04:08.793Z,11.80
2018-03-26T06:06:36.232Z,11.80
2018-03-26T06:09:03.661Z,11.80
2018-03-26T06:11:31.125Z,11.70
2018-03-26T06:13:58.704Z,12.00
2018-03-26T06:16:26.285Z,11.80
2018-03-26T06:18:53.723Z,11.90
2018-03-26T06:21:21.160Z,11.80
2018-03-26T06:23:49.352Z,11.70
2018-03-26T06:26:16.790Z,11.70
2018-03-26T06:28:44.218Z,12.00
2018-03-26T06:31:11.670Z,12.30
2018-03-26T06:33:39.095Z,12.50
2018-03-26T06:39:01.861Z,12.70
2018-03-26T06:41:29.322Z,12.80
2018-03-26T06:43:56.781Z,12.70
2018-03-26T06:46:24.240Z,12.80
2018-03-26T06:48:51.682Z,12.90
2018-03-26T06:51:19.105Z,13.20
2018-03-26T06:53:47.300Z,13.50
2018-03-26T06:56:14.736Z,13.40
2018-03-26T06:58:42.956Z,13.90
2018-03-26T07:01:10.390Z,13.90
2018-03-26T07:03:37.830Z,13.60
2018-03-26T07:06:06.040Z,13.40
2018-03-26T07:08:33.481Z,13.40
2018-03-26T07:11:00.941Z,13.40
2018-03-26T07:13:28.378Z,13.20
2018-03-26T07:15:56.578Z,13.50
2018-03-26T07:18:24.021Z,13.40
2018-03-26T07:20:52.213Z,13.30
2018-03-26T07:23:20.585Z,13.30
2018-03-26T07:25:48.017Z,13.00
2018-03-26T07:28:16.215Z,12.90
2018-03-26T07:30:43.654Z,12.90
2018-03-26T07:33:11.848Z,12.70
2018-03-26T07:35:39.284Z,12.70
2018-03-26T07:38:06.725Z,12.50
2018-03-26T07:40:34.165Z,12.70
2018-03-26T07:43:01.604Z,12.70
2018-03-26T07:45:29.042Z,12.70
2018-03-26T07:47:56.502Z,13.10
2018-03-26T07:50:23.945Z,13.80
2018-03-26T07:52:51.388Z,14.50
2018-03-26T07:55:18.817Z,15.40
2018-03-26T07:57:46.254Z,16.30
2018-03-26T08:00:13.703Z,17.20
2018-03-26T08:02:41.132Z,17.90
2018-03-26T08:05:08.569Z,18.30
2018-03-26T08:07:36.777Z,18.40
2018-03-26T08:10:04.214Z,18.40
2018-03-26T08:12:31.680Z,18.90
2018-03-26T08:14:59.869Z,19.30
2018-03-26T08:17:27.312Z,19.20
2018-03-26T08:19:54.745Z,19.40
2018-03-26T08:22:22.973Z,18.20
2018-03-26T08:24:50.393Z,18.10
2018-03-26T08:27:18.589Z,18.20
2018-03-26T08:29:46.026Z,18.20
2018-03-26T08:32:13.460Z,17.90
2018-03-26T08:34:41.673Z,18.30
2018-03-26T08:37:09.114Z,18.20
2018-03-26T08:39:37.310Z,18.50
2018-03-26T08:42:04.762Z,18.50
2018-03-26T08:44:32.201Z,18.60
2018-03-26T08:47:00.390Z,17.70
2018-03-26T08:49:27.843Z,17.70
2018-03-26T08:51:55.293Z,18.00
2018-03-26T08:54:23.484Z,18.50
2018-03-26T08:56:50.974Z,18.40
2018-03-26T08:59:18.417Z,19.50
2018-03-26T09:01:45.841Z,20.00
2018-03-26T09:04:13.279Z,21.60
2018-03-26T09:06:41.502Z,23.20
2018-03-26T09:09:08.947Z,23.20
2018-03-26T09:11:36.380Z,24.40
2018-03-26T09:14:04.589Z,23.70
2018-03-26T09:16:32.045Z,23.60
2018-03-26T09:18:59.473Z,22.30
2018-03-26T09:21:27.683Z,19.70
2018-03-26T09:23:55.125Z,19.60
2018-03-26T09:26:22.561Z,20.00
2018-03-26T09:28:50.000Z,21.30
2018-03-26T09:31:17.824Z,22.30
2018-03-26T09:33:45.277Z,22.70
2018-03-26T09:36:12.730Z,24.50
2018-03-26T09:38:40.186Z,25.70
2018-03-26T09:41:07.665Z,26.40
2018-03-26T09:43:35.817Z,26.20
2018-03-26T09:46:03.245Z,26.20
2018-03-26T09:48:31.453Z,27.80
2018-03-26T09:50:58.893Z,27.80
2018-03-26T09:53:26.351Z,28.00
2018-03-26T09:55:54.555Z,28.80
2018-03-26T09:58:21.997Z,28.80
2018-03-26T10:00:49.451Z,27.60
2018-03-26T10:03:17.628Z,28.20
2018-03-26T10:05:45.081Z,28.20
2018-03-26T10:08:12.533Z,29.10
2018-03-26T10:10:39.961Z,29.50
2018-03-26T10:13:08.177Z,29.20
2018-03-26T10:15:35.612Z,29.10
2018-03-26T10:18:03.824Z,27.30
2018-03-26T10:20:31.264Z,27.30
2018-03-26T10:22:58.704Z,26.70
2018-03-26T10:25:26.894Z,27.80
2018-03-26T10:27:54.322Z,27.80
2018-03-26T10:30:22.536Z,27.00
2018-03-26T10:32:49.980Z,27.00
2018-03-26T10:35:17.401Z,26.70
2018-03-26T10:37:46.317Z,27.20
2018-03-26T10:40:13.753Z,27.20
2018-03-26T10:42:41.964Z,25.30
2018-03-26T10:45:09.394Z,25.20
2018-03-26T10:47:37.602Z,22.90
2018-03-26T10:50:05.037Z,22.80
2018-03-26T10:52:33.234Z,22.80
2018-03-26T10:55:00.672Z,22.70
2018-03-26T10:57:28.104Z,22.80
2018-03-26T10:59:56.307Z,21.40
2018-03-26T11:02:23.756Z,21.40
2018-03-26T11:04:51.960Z,20.00
2018-03-26T11:07:19.397Z,19.90
2018-03-26T11:09:46.829Z,19.10
2018-03-26T11:12:15.049Z,20.80
2018-03-26T11:14:42.491Z,20.80
2018-03-26T11:17:09.917Z,22.80
2018-03-26T11:19:38.125Z,24.90
2018-03-26T11:22:05.591Z,24.80
2018-03-26T11:24:33.045Z,23.50
2018-03-26T11:27:00.481Z,22.00
2018-03-26T11:29:29.469Z,19.80
2018-03-26T11:31:57.680Z,19.30
2018-03-26T11:34:25.148Z,19.30
2018-03-26T11:36:52.583Z,18.90
2018-03-26T11:39:20.036Z,18.30
2018-03-26T11:41:47.498Z,18.10
2018-03-26T11:44:15.697Z,18.00
2018-03-26T11:46:43.157Z,17.90
2018-03-26T11:49:12.574Z,18.10
2018-03-26T11:51:40.907Z,18.50
2018-03-26T11:54:08.379Z,19.10
2018-03-26T11:56:35.809Z,19.50
2018-03-26T11:59:04.130Z,19.80
2018-03-26T12:01:31.567Z,19.80
2018-03-26T12:03:59.029Z,19.20
2018-03-26T12:06:26.518Z,19.00
2018-03-26T12:08:54.027Z,19.00
2018-03-26T12:11:21.431Z,18.90
2018-03-26T12:13:48.873Z,18.90
2018-03-26T12:16:16.330Z,18.40
2018-03-26T12:18:43.753Z,18.90
2018-03-26T12:21:11.941Z,21.20
2018-03-26T12:23:51.250Z,21.20
2018-03-26T12:26:19.433Z,21.10
2018-03-26T12:28:58.637Z,21.10
2018-03-26T12:31:26.068Z,20.80
2018-03-26T12:34:05.237Z,21.00
2018-03-26T12:36:32.694Z,21.70
2018-03-26T12:39:00.138Z,22.30
2018-03-26T12:41:27.564Z,21.90
2018-03-26T12:43:55.010Z,21.30
2018-03-26T12:46:34.301Z,20.70
2018-03-26T12:49:01.734Z,20.50
2018-03-26T12:51:40.954Z,20.00
2018-03-26T12:54:08.394Z,19.70
2018-03-26T12:56:35.842Z,19.30
2018-03-26T12:59:03.277Z,19.10
2018-03-26T13:01:43.313Z,19.30
2018-03-26T13:04:10.759Z,19.30
2018-03-26T13:06:38.195Z,19.90
2018-03-26T13:09:05.637Z,20.20
2018-03-26T13:11:33.060Z,20.40
2018-03-26T13:14:00.501Z,20.10
2018-03-26T13:16:28.710Z,20.90
2018-03-26T13:18:56.171Z,20.90
2018-03-26T13:21:23.589Z,22.70
2018-03-26T13:23:51.029Z,24.30
2018-03-26T13:26:18.468Z,25.70
2018-03-26T13:28:45.914Z,25.80
2018-03-26T13:31:13.349Z,25.30
2018-03-26T13:33:40.798Z,24.30
2018-03-26T13:36:08.236Z,22.80
2018-03-26T13:38:36.441Z,21.80
2018-03-26T13:41:03.884Z,21.80
2018-03-26T13:43:32.100Z,22.30
2018-03-26T13:45:59.569Z,22.30
2018-03-26T13:48:27.005Z,22.60
2018-03-26T13:50:54.442Z,22.60
2018-03-26T13:53:21.880Z,23.30
2018-03-26T13:55:50.109Z,21.80
2018-03-26T13:58:17.547Z,21.80
2018-03-26T14:00:44.998Z,21.30
2018-03-26T14:03:12.420Z,21.50
2018-03-26T14:05:39.869Z,22.10
2018-03-26T14:11:09.154Z,23.00
2018-03-26T14:13:43.224Z,23.80
2018-03-26T14:16:22.661Z,23.60
2018-03-26T14:18:50.871Z,21.60
2018-03-26T14:21:18.300Z,21.50
2018-03-26T14:23:46.484Z,20.10
2018-03-26T14:26:13.922Z,20.10
2018-03-26T14:28:42.132Z,19.70
2018-03-26T14:31:09.585Z,19.70
2018-03-26T14:33:37.006Z,19.80
2018-03-26T14:36:04.454Z,19.60
2018-03-26T14:38:31.906Z,19.60
2018-03-26T14:40:59.360Z,19.40
2018-03-26T14:43:27.557Z,18.80
2018-03-26T14:45:55.770Z,18.70
2018-03-26T14:48:23.215Z,18.70
2018-03-26T14:50:50.667Z,18.70
2018-03-26T14:53:18.093Z,18.50
2018-03-26T14:55:45.546Z,18.60
2018-03-26T14:58:12.992Z,18.40
2018-03-26T15:00:40.467Z,18.30
2018-03-26T15:03:07.885Z,18.20
2018-03-26T15:05:35.340Z,17.80
2018-03-26T15:08:02.795Z,17.50
2018-03-26T15:10:30.274Z,17.40
2018-03-26T15:12:57.706Z,17.30
2018-03-26T15:15:25.149Z,17.10
2018-03-26T15:17:52.573Z,16.80
2018-03-26T15:20:21.703Z,16.50
2018-03-26T15:22:49.129Z,16.40
2018-03-26T15:25:17.564Z,16.60
2018-03-26T15:27:45.007Z,16.50
2018-03-26T15:30:12.449Z,16.60
2018-03-26T15:32:39.886Z,16.70
2018-03-26T15:35:08.090Z,16.00
2018-03-26T15:37:35.537Z,15.90
2018-03-26T15:40:02.994Z,16.20
2018-03-26T15:42:31.218Z,16.20
2018-03-26T15:44:59.322Z,16.20
2018-03-26T15:47:27.524Z,16.00
2018-03-26T15:49:55.004Z,15.90
2018-03-26T15:52:22.438Z,16.10
2018-03-26T15:54:49.892Z,16.50
2018-03-26T15:57:18.103Z,16.40
2018-03-26T15:59:45.530Z,16.30
2018-03-26T16:02:12.479Z,16.30
2018-03-26T16:04:39.901Z,16.20
2018-03-26T16:07:08.114Z,16.00
2018-03-26T16:09:35.569Z,15.90
2018-03-26T16:12:03.012Z,16.00
2018-03-26T16:14:31.425Z,16.00
2018-03-26T16:16:58.845Z,16.00
2018-03-26T16:19:27.087Z,15.60
2018-03-26T16:21:54.520Z,15.60
2018-03-26T16:24:22.015Z,15.50
2018-03-26T16:26:49.456Z,15.40
2018-03-26T16:29:16.941Z,15.60
2018-03-26T16:31:45.145Z,15.80
2018-03-26T16:34:12.595Z,15.80
2018-03-26T16:36:40.067Z,15.70
2018-03-26T16:39:07.505Z,15.80
2018-03-26T16:41:47.449Z,15.70
2018-03-26T16:44:15.657Z,15.50
2018-03-26T16:46:43.115Z,15.50
2018-03-26T16:49:10.584Z,15.50
2018-03-26T16:51:38.019Z,15.40
2018-03-26T16:54:05.461Z,15.30
2018-03-26T16:56:32.906Z,15.30
2018-03-26T16:59:01.147Z,15.40
2018-03-26T17:01:28.587Z,15.40
2018-03-26T17:03:56.050Z,15.50
2018-03-26T17:06:23.491Z,15.50
2018-03-26T17:08:50.917Z,15.60
2018-03-26T17:11:19.134Z,15.50
2018-03-26T17:13:46.578Z,15.50
2018-03-26T17:16:14.005Z,15.40
2018-03-26T17:18:42.231Z,15.50
2018-03-26T17:21:09.689Z,15.50
2018-03-26T17:23:37.122Z,15.40
2018-03-26T17:26:04.557Z,15.60
2018-03-26T17:28:32.763Z,15.40
2018-03-26T17:31:00.215Z,15.40
2018-03-26T17:33:27.664Z,15.30
2018-03-26T17:35:55.109Z,15.30
2018-03-26T17:38:23.311Z,15.10
2018-03-26T17:40:50.761Z,15.00
2018-03-26T17:43:18.196Z,15.00
2018-03-26T17:45:45.637Z,15.00
2018-03-26T17:48:13.846Z,14.90
2018-03-26T17:50:41.302Z,14.90
2018-03-26T17:53:08.738Z,14.90
2018-03-26T17:55:36.944Z,14.90
2018-03-26T17:58:04.384Z,14.90
2018-03-26T18:00:31.825Z,14.90
2018-03-26T18:03:00.069Z,14.70
2018-03-26T18:05:27.492Z,14.60
2018-03-26T18:07:54.940Z,14.70
2018-03-26T18:10:22.393Z,14.50
2018-03-26T18:12:49.829Z,14.40
2018-03-26T18:15:18.039Z,14.40
2018-03-26T18:17:45.900Z,14.40
2018-03-26T18:20:13.341Z,14.40
2018-03-26T18:22:40.831Z,14.50
2018-03-26T18:25:08.291Z,14.50
2018-03-26T18:27:35.752Z,14.40
2018-03-26T18:30:03.225Z,14.40
2018-03-26T18:32:31.449Z,14.40
2018-03-26T18:34:58.901Z,14.40
2018-03-26T18:37:27.126Z,14.30
2018-03-26T18:39:54.564Z,14.30
2018-03-26T18:42:22.277Z,14.30
2018-03-26T18:44:49.763Z,14.30
2018-03-26T18:47:17.217Z,14.20
2018-03-26T18:49:45.498Z,14.20
2018-03-26T18:52:13.692Z,14.10
2018-03-26T18:54:41.265Z,14.10
2018-03-26T18:57:08.810Z,14.00
2018-03-26T18:59:36.242Z,13.90
2018-03-26T19:02:04.448Z,13.80
2018-03-26T19:04:31.935Z,13.80
2018-03-26T19:06:59.405Z,13.80
2018-03-26T19:09:26.872Z,13.70
2018-03-26T19:11:54.334Z,13.60
2018-03-26T19:14:23.064Z,13.50
2018-03-26T19:16:50.529Z,13.50
2018-03-26T19:19:17.984Z,13.50
2018-03-26T19:21:45.455Z,13.50
2018-03-26T19:24:12.921Z,13.30
2018-03-26T19:26:40.381Z,13.20
2018-03-26T19:29:07.826Z,13.40
2018-03-26T19:31:35.295Z,13.50
2018-03-26T19:34:02.848Z,13.60
2018-03-26T19:36:30.310Z,13.60
2018-03-26T19:38:57.737Z,13.70
2018-03-26T19:41:25.185Z,13.80
2018-03-26T19:43:52.633Z,13.80
2018-03-26T19:46:20.134Z,13.60
2018-03-26T19:48:47.578Z,13.50
2018-03-26T19:51:15.057Z,13.50
2018-03-26T19:53:42.519Z,13.40
2018-03-26T19:56:09.964Z,13.20
2018-03-26T19:58:37.420Z,13.40
2018-03-26T20:01:04.852Z,13.30
2018-03-26T20:03:32.305Z,13.40
2018-03-26T20:05:59.769Z,13.50
2018-03-26T20:08:28.025Z,13.60
2018-03-26T20:10:56.604Z,13.60
2018-03-26T20:13:25.082Z,13.50
2018-03-26T20:15:53.325Z,13.40
2018-03-26T20:18:20.771Z,13.40
2018-03-26T20:20:48.453Z,13.40
2018-03-26T20:23:16.013Z,13.40
2018-03-26T20:25:43.447Z,13.50
2018-03-26T20:28:10.956Z,13.40
2018-03-26T20:30:38.389Z,13.40
2018-03-26T20:33:05.872Z,13.50
2018-03-26T20:35:34.169Z,13.60
2018-03-26T20:38:01.624Z,13.50
2018-03-26T20:40:29.070Z,13.50
2018-03-26T20:42:57.293Z,13.60
2018-03-26T20:45:24.777Z,13.60
2018-03-26T20:47:52.229Z,13.70
2018-03-26T20:50:19.686Z,13.70
2018-03-26T20:52:47.144Z,13.60
2018-03-26T20:55:14.619Z,13.60
2018-03-26T20:57:42.126Z,13.60
2018-03-26T21:00:09.603Z,13.60
2018-03-26T21:02:37.045Z,13.50
2018-03-26T21:05:04.504Z,13.60
2018-03-26T21:07:32.059Z,13.70
2018-03-26T21:09:59.545Z,13.70
2018-03-26T21:12:27.062Z,13.70
2018-03-26T21:14:55.286Z,13.80
2018-03-26T21:17:22.751Z,13.80
2018-03-26T21:19:50.217Z,13.70
2018-03-26T21:22:18.655Z,13.50
2018-03-26T21:24:46.102Z,13.50
2018-03-26T21:27:13.571Z,13.50
2018-03-26T21:29:41.034Z,13.20
2018-03-26T21:32:08.497Z,13.20
2018-03-26T21:34:35.952Z,13.20
2018-03-26T21:37:03.390Z,13.10
2018-03-26T21:39:30.835Z,13.00
2018-03-26T21:41:58.296Z,13.00
2018-03-26T21:44:25.749Z,13.00
2018-03-26T21:46:53.245Z,13.00
2018-03-26T21:49:20.792Z,12.90
2018-03-26T21:51:48.217Z,12.90
2018-03-26T21:54:15.681Z,12.80
2018-03-26T21:56:43.178Z,12.60
2018-03-26T21:59:10.648Z,12.50
2018-03-26T22:01:38.087Z,12.50
2018-03-26T22:04:05.536Z,12.30
2018-03-26T22:06:32.995Z,12.40
2018-03-26T22:09:00.486Z,12.40
2018-03-26T22:11:27.974Z,12.40
2018-03-26T22:13:56.209Z,12.40
2018-03-26T22:16:25.277Z,12.40
2018-03-26T22:18:52.730Z,12.30
2018-03-26T22:21:20.182Z,12.00
2018-03-26T22:23:47.637Z,12.00
2018-03-26T22:26:15.067Z,12.10
2018-03-26T22:28:43.296Z,12.20
2018-03-26T22:31:10.753Z,12.20
2018-03-26T22:33:38.193Z,12.10
2018-03-26T22:36:05.670Z,12.00
2018-03-26T22:38:34.795Z,11.90
2018-03-26T22:41:02.283Z,12.00
2018-03-26T22:43:30.729Z,12.00
2018-03-26T22:45:58.189Z,11.90
2018-03-26T22:48:25.643Z,11.90
2018-03-26T22:50:53.122Z,11.80
2018-03-26T22:53:21.410Z,11.80
2018-03-26T22:55:49.907Z,11.70
2018-03-26T22:58:18.097Z,11.70
2018-03-26T23:00:45.561Z,11.70
2018-03-26T23:03:13.043Z,11.60
2018-03-26T23:05:41.286Z,11.30
2018-03-26T23:08:08.749Z,11.30
2018-03-26T23:10:36.231Z,11.20
2018-03-26T23:13:03.670Z,11.00
2018-03-26T23:15:32.009Z,11.10
2018-03-26T23:18:00.224Z,11.30
2018-03-26T23:20:27.692Z,11.30
2018-03-26T23:22:55.173Z,11.40
2018-03-26T23:25:22.641Z,11.40
2018-03-26T23:27:50.081Z,11.40
2018-03-26T23:30:17.525Z,11.40
2018-03-26T23:32:44.964Z,11.40
2018-03-26T23:35:13.108Z,11.50
2018-03-26T23:37:41.330Z,11.60
2018-03-26T23:40:08.799Z,11.60
2018-03-26T23:42:36.293Z,11.50
2018-03-26T23:45:04.553Z,11.40
2018-03-26T23:47:32.007Z,11.40
2018-03-26T23:49:59.496Z,11.40
2018-03-26T23:52:26.941Z,11.50
2018-03-26T23:54:55.159Z,11.40
2018-03-26T23:57:22.611Z,11.30
2018-03-26T23:59:50.075Z,11.30
